createdAt,value
2023-04-16T00:00:20.149Z,16.40
2023-04-16T00:05:20.318Z,16.48
2023-04-16T00:10:19.342Z,16.56
2023-04-16T00:15:18.139Z,16.59
2023-04-16T00:20:17.017Z,16.63
2023-04-16T00:25:17.405Z,16.56
2023-04-16T00:30:16.486Z,16.54
2023-04-16T00:35:15.539Z,16.46
2023-04-16T00:40:14.375Z,16.37
2023-04-16T00:45:14.872Z,16.31
2023-04-16T00:50:13.933Z,16.21
2023-04-16T00:55:13.699Z,16.17
2023-04-16T01:00:15.538Z,16.10
2023-04-16T01:05:14.474Z,16.01
2023-04-16T01:10:13.315Z,15.99
2023-04-16T01:15:12.854Z,16.05
2023-04-16T01:20:13.198Z,16.04
2023-04-16T01:25:17.075Z,16.08
2023-04-16T01:30:16.608Z,16.04
2023-04-16T01:35:25.932Z,15.94
2023-04-16T01:40:26.276Z,15.80
2023-04-16T01:45:25.563Z,15.71
2023-04-16T01:50:25.010Z,15.56
2023-04-16T01:55:25.354Z,15.46
2023-04-16T02:00:24.164Z,15.28
2023-04-16T02:05:24.930Z,15.14
2023-04-16T02:10:25.927Z,15.17
2023-04-16T02:15:25.491Z,15.10
2023-04-16T02:20:24.666Z,14.91
2023-04-16T02:25:29.044Z,14.88
2023-04-16T02:30:29.740Z,14.97
2023-04-16T02:35:29.058Z,15.05
2023-04-16T02:40:29.355Z,15.04
2023-04-16T02:45:28.322Z,14.94
2023-04-16T02:50:27.259Z,14.84
2023-04-16T02:55:26.228Z,14.96
2023-04-16T03:00:26.779Z,15.05
2023-04-16T03:05:25.826Z,15.01
2023-04-16T03:10:25.237Z,14.83
2023-04-16T03:15:24.262Z,14.83
2023-04-16T03:20:24.597Z,14.88
2023-04-16T03:25:24.961Z,14.92
2023-04-16T03:30:24.007Z,14.92
2023-04-16T03:35:24.240Z,14.96
2023-04-16T03:40:23.123Z,15.04
2023-04-16T03:45:22.953Z,15.10
2023-04-16T03:50:24.799Z,15.14
2023-04-16T03:55:23.753Z,15.23
2023-04-16T04:00:22.908Z,15.30
2023-04-16T04:05:38.982Z,15.32
2023-04-16T04:10:40.440Z,15.36
2023-04-16T04:15:41.707Z,15.46
2023-04-16T04:20:42.617Z,15.47
2023-04-16T04:25:41.865Z,15.61
2023-04-16T04:30:40.824Z,15.56
2023-04-16T04:35:39.826Z,15.59
2023-04-16T04:40:42.207Z,15.75
2023-04-16T04:45:41.764Z,15.85
2023-04-16T04:50:41.084Z,15.88
2023-04-16T04:55:42.179Z,15.98
2023-04-16T05:00:42.805Z,16.11
2023-04-16T05:05:42.082Z,16.19
2023-04-16T05:10:42.320Z,16.30
2023-04-16T05:15:41.577Z,16.40
2023-04-16T05:20:40.288Z,16.63
2023-04-16T05:25:39.183Z,16.76
2023-04-16T05:30:39.445Z,16.90
2023-04-16T05:35:38.455Z,16.90
2023-04-16T05:40:37.554Z,16.73
2023-04-16T05:45:41.048Z,16.67
2023-04-16T05:50:41.411Z,16.75
2023-04-16T05:55:40.287Z,16.94
2023-04-16T06:00:39.269Z,17.27
2023-04-16T06:05:38.209Z,17.38
2023-04-16T06:10:38.468Z,17.50
2023-04-16T06:15:37.446Z,17.72
2023-04-16T06:20:36.447Z,17.94
2023-04-16T06:25:35.455Z,17.96
2023-04-16T06:30:35.892Z,18.12
2023-04-16T06:35:34.908Z,18.28
2023-04-16T06:40:33.697Z,18.36
2023-04-16T06:45:32.494Z,18.36
2023-04-16T06:50:32.773Z,18.59
2023-04-16T06:55:31.713Z,18.52
2023-04-16T07:00:30.641Z,18.65
2023-04-16T07:05:29.480Z,18.87
2023-04-16T07:10:30.082Z,18.84
2023-04-16T07:15:30.747Z,19.11
2023-04-16T07:20:29.803Z,19.25
2023-04-16T07:25:30.130Z,19.46
2023-04-16T07:30:34.235Z,19.61
2023-04-16T07:35:33.597Z,19.77
2023-04-16T07:40:34.472Z,19.81
2023-04-16T07:45:33.362Z,19.53
2023-04-16T07:50:32.296Z,19.83
2023-04-16T07:55:31.238Z,19.95
2023-04-16T08:00:31.579Z,20.39
2023-04-16T08:05:30.609Z,20.84
2023-04-16T08:10:29.722Z,20.75
2023-04-16T08:15:28.678Z,20.92
2023-04-16T08:20:31.197Z,21.34
2023-04-16T08:25:30.049Z,21.35
2023-04-16T08:30:29.109Z,21.27
2023-04-16T08:35:29.347Z,21.34
2023-04-16T08:40:30.770Z,21.52
2023-04-16T08:45:29.515Z,21.57
2023-04-16T08:50:31.594Z,22.19
2023-04-16T08:55:33.881Z,22.52
2023-04-16T09:00:34.713Z,23.29
2023-04-16T09:05:35.132Z,24.08
2023-04-16T09:10:34.650Z,24.78
2023-04-16T09:15:35.322Z,24.99
2023-04-16T09:20:36.184Z,25.61
2023-04-16T09:25:35.845Z,26.10
2023-04-16T09:30:34.983Z,26.08
2023-04-16T09:35:48.676Z,26.69
2023-04-16T09:40:48.639Z,27.08
2023-04-16T09:45:51.907Z,26.74
2023-04-16T09:50:53.436Z,27.08
2023-04-16T09:55:52.185Z,27.09
2023-04-16T10:00:51.290Z,26.77
2023-04-16T10:05:50.091Z,27.13
2023-04-16T10:10:50.567Z,27.14
2023-04-16T10:15:49.873Z,27.63
2023-04-16T10:20:49.218Z,27.78
2023-04-16T10:25:51.291Z,27.58
2023-04-16T10:30:53.781Z,27.53
2023-04-16T10:36:05.056Z,28.13
2023-04-16T10:41:08.720Z,27.84
2023-04-16T10:46:22.504Z,27.28
2023-04-16T10:51:32.608Z,26.88
2023-04-16T10:56:34.317Z,25.96
2023-04-16T11:01:34.241Z,25.58
2023-04-16T11:06:33.183Z,25.45
2023-04-16T11:11:39.728Z,24.92
2023-04-16T11:16:42.012Z,24.26
2023-04-16T11:21:40.797Z,23.16
2023-04-16T11:26:41.062Z,21.89
2023-04-16T11:31:40.307Z,21.08
2023-04-16T11:36:45.117Z,20.43
2023-04-16T11:41:46.084Z,20.20
2023-04-16T11:46:45.251Z,20.08
2023-04-16T11:51:45.150Z,19.88
2023-04-16T11:56:48.239Z,19.52
2023-04-16T12:01:49.722Z,19.52
2023-04-16T12:07:11.128Z,19.56
2023-04-16T12:12:31.401Z,19.44
2023-04-16T12:17:31.328Z,19.43
2023-04-16T12:22:31.302Z,19.41
2023-04-16T12:27:49.533Z,19.74
2023-04-16T12:32:51.889Z,20.15
2023-04-16T12:37:51.106Z,20.86
2023-04-16T12:42:51.452Z,21.12
2023-04-16T12:47:50.868Z,21.48
2023-04-16T12:52:51.002Z,21.99
2023-04-16T12:57:53.041Z,22.60
2023-04-16T13:02:52.066Z,22.80
2023-04-16T13:07:51.003Z,22.76
2023-04-16T13:12:51.239Z,22.72
2023-04-16T13:17:50.112Z,22.78
2023-04-16T13:22:48.952Z,22.70
2023-04-16T13:27:47.868Z,23.17
2023-04-16T13:32:48.104Z,23.08
2023-04-16T13:37:46.982Z,22.79
2023-04-16T13:42:45.900Z,22.39
2023-04-16T13:47:44.916Z,22.54
2023-04-16T13:52:45.142Z,22.37
2023-04-16T13:57:43.951Z,22.54
2023-04-16T14:02:46.067Z,22.40
2023-04-16T14:07:46.470Z,22.44
2023-04-16T14:12:45.378Z,23.21
2023-04-16T14:17:44.694Z,23.92
2023-04-16T14:22:44.309Z,24.26
2023-04-16T14:27:44.453Z,24.35
2023-04-16T14:32:43.541Z,24.01
2023-04-16T14:37:42.645Z,23.78
2023-04-16T14:42:41.535Z,24.07
2023-04-16T14:47:46.135Z,23.87
2023-04-16T14:52:45.154Z,23.86
2023-04-16T14:57:44.175Z,22.96
2023-04-16T15:02:44.602Z,22.70
2023-04-16T15:07:43.689Z,22.11
2023-04-16T15:12:42.518Z,21.65
2023-04-16T15:17:41.643Z,21.39
2023-04-16T15:22:41.856Z,21.25
2023-04-16T15:27:40.724Z,20.67
2023-04-16T15:32:39.779Z,20.19
2023-04-16T15:37:39.006Z,20.01
2023-04-16T15:42:40.124Z,20.02
2023-04-16T15:47:41.526Z,20.03
2023-04-16T15:52:40.993Z,19.91
2023-04-16T15:57:41.314Z,19.57
2023-04-16T16:02:40.753Z,19.18
2023-04-16T16:07:39.819Z,19.04
2023-04-16T16:12:38.661Z,18.77
2023-04-16T16:17:38.928Z,18.25
2023-04-16T16:22:38.246Z,18.05
2023-04-16T16:27:37.423Z,17.87
2023-04-16T16:32:36.740Z,17.68
2023-04-16T16:37:37.080Z,17.64
2023-04-16T16:42:36.359Z,17.38
2023-04-16T16:47:35.196Z,17.15
2023-04-16T16:52:34.312Z,17.12
2023-04-16T16:57:34.584Z,17.14
2023-04-16T17:02:33.474Z,16.97
2023-04-16T17:07:32.998Z,16.90
2023-04-16T17:12:31.977Z,16.82
2023-04-16T17:17:33.119Z,16.71
2023-04-16T17:22:31.997Z,16.73
2023-04-16T17:27:33.855Z,16.68
2023-04-16T17:32:34.432Z,16.88
2023-04-16T17:37:33.888Z,16.89
2023-04-16T17:42:32.841Z,16.78
2023-04-16T17:47:35.400Z,16.94
2023-04-16T17:52:37.292Z,16.83
2023-04-16T17:57:36.732Z,16.82
2023-04-16T18:02:40.816Z,16.70
2023-04-16T18:07:40.473Z,16.66
2023-04-16T18:12:39.250Z,16.73
2023-04-16T18:17:39.699Z,16.65
2023-04-16T18:22:38.695Z,16.49
2023-04-16T18:27:41.285Z,16.64
2023-04-16T18:32:58.917Z,16.36
2023-04-16T18:38:00.277Z,16.52
2023-04-16T18:42:59.205Z,16.67
2023-04-16T18:47:59.874Z,16.59
2023-04-16T18:52:58.867Z,16.45
2023-04-16T18:57:57.858Z,16.61
2023-04-16T19:02:56.649Z,16.58
2023-04-16T19:07:56.999Z,16.52
2023-04-16T19:12:57.229Z,16.40
2023-04-16T19:17:56.187Z,16.30
2023-04-16T19:22:56.646Z,16.20
2023-04-16T19:27:56.044Z,16.09
2023-04-16T19:32:55.663Z,15.99
2023-04-16T19:37:56.609Z,15.75
2023-04-16T19:42:55.648Z,15.64
2023-04-16T19:47:55.012Z,15.48
2023-04-16T19:52:53.831Z,15.30
2023-04-16T19:57:54.086Z,15.23
2023-04-16T20:02:53.192Z,15.40
2023-04-16T20:07:52.778Z,15.08
2023-04-16T20:12:53.255Z,14.85
2023-04-16T20:17:52.460Z,14.83
2023-04-16T20:22:51.437Z,14.66
2023-04-16T20:27:50.326Z,14.60
2023-04-16T20:32:50.822Z,14.41
2023-04-16T20:37:49.847Z,14.22
2023-04-16T20:42:51.142Z,14.24
2023-04-16T20:47:51.930Z,14.17
2023-04-16T20:52:51.256Z,14.22
2023-04-16T20:57:50.009Z,14.04
2023-04-16T21:02:48.897Z,13.84
2023-04-16T21:07:49.185Z,13.92
2023-04-16T21:12:48.095Z,13.88
2023-04-16T21:17:47.046Z,14.00
2023-04-16T21:22:45.881Z,13.98
2023-04-16T21:27:46.222Z,13.93
2023-04-16T21:32:45.842Z,13.90
2023-04-16T21:37:44.670Z,13.84
2023-04-16T21:42:44.500Z,13.55
2023-04-16T21:47:44.867Z,13.67
2023-04-16T21:52:46.909Z,13.51
2023-04-16T21:57:45.738Z,13.63
2023-04-16T22:02:46.188Z,13.64
2023-04-16T22:07:45.200Z,13.77
2023-04-16T22:12:44.929Z,13.79
2023-04-16T22:17:45.666Z,13.61
2023-04-16T22:22:45.099Z,13.58
2023-04-16T22:27:44.002Z,13.71
2023-04-16T22:32:42.824Z,13.52
2023-04-16T22:37:43.223Z,13.60
2023-04-16T22:42:42.372Z,13.53
2023-04-16T22:47:41.737Z,13.58
2023-04-16T22:52:42.067Z,13.56
2023-04-16T22:57:41.116Z,13.41
2023-04-16T23:02:40.066Z,13.38
2023-04-16T23:07:39.150Z,13.25
2023-04-16T23:12:39.326Z,13.17
2023-04-16T23:17:38.128Z,13.21
2023-04-16T23:22:37.107Z,13.23
2023-04-16T23:27:35.914Z,13.24
2023-04-16T23:32:36.328Z,13.12
2023-04-16T23:37:35.107Z,13.09
2023-04-16T23:42:33.955Z,13.08
2023-04-16T23:47:32.912Z,12.85
2023-04-16T23:52:33.310Z,12.99
2023-04-16T23:57:32.106Z,12.88
